createdAt,value
2022-12-23T08:59:15.519Z,61
2022-12-23T09:00:20.724Z,67
2022-12-23T09:01:25.860Z,61
2022-12-23T09:02:31.059Z,56
2022-12-23T09:03:37.145Z,50
2022-12-23T09:04:43.269Z,50
2022-12-23T09:05:49.399Z,50
2022-12-23T09:06:54.558Z,56
2022-12-23T09:08:00.684Z,56
2022-12-23T09:09:06.810Z,61
2022-12-23T09:10:12.931Z,67
2022-12-23T09:11:19.048Z,67
2022-12-23T09:12:25.192Z,67
2022-12-23T09:13:31.293Z,67
2022-12-23T09:14:37.548Z,67
2022-12-23T09:15:43.530Z,61
2022-12-23T09:16:49.731Z,67
2022-12-23T09:17:55.825Z,73
2022-12-23T09:19:01.958Z,78
2022-12-23T09:20:08.012Z,84
2022-12-23T09:21:14.185Z,84
2022-12-23T09:22:20.268Z,101
2022-12-23T09:23:26.397Z,95
2022-12-23T09:24:32.537Z,90
2022-12-23T09:25:38.624Z,84
2022-12-23T09:26:44.732Z,78
2022-12-23T09:27:50.824Z,67
2022-12-23T09:28:56.925Z,61
2022-12-23T09:30:03.052Z,73
2022-12-23T09:31:09.198Z,73
2022-12-23T09:32:15.308Z,78
2022-12-23T09:33:21.380Z,78
2022-12-23T09:34:27.601Z,78
2022-12-23T09:35:32.758Z,78
2022-12-23T09:36:38.891Z,67
2022-12-23T09:37:45.006Z,73
2022-12-23T09:38:51.103Z,73
2022-12-23T09:39:57.217Z,73
2022-12-23T09:41:03.327Z,67
2022-12-23T09:42:09.489Z,56
